sensor_id;sensor_type;location;lat;lon;timestamp;pressure;altitude;pressure_sealevel;temperature;humidity
47710;BME280;33473;51.640;5.892;2023-03-01T00:01:47;103000;;;3.8;44.0
47710;BME280;33473;51.640;5.892;2023-03-01T00:15:07;103000;;;3.8;44.0
47710;BME280;33473;51.640;5.892;2023-03-01T00:28:27;103000;;;3.6;44.0
47710;BME280;33473;51.640;5.892;2023-03-01T00:41:46;103000;;;3.5;44.0
47710;BME280;33473;51.640;5.892;2023-03-01T00:55:06;103000;;;3.4;44.0
47710;BME280;33473;51.640;5.892;2023-03-01T01:08:26;103000;;;3.2;45.0
47710;BME280;33473;51.640;5.892;2023-03-01T01:21:45;102900;;;2.9;46.0
47710;BME280;33473;51.640;5.892;2023-03-01T01:35:05;102900;;;3.0;46.0
47710;BME280;33473;51.640;5.892;2023-03-01T01:48:25;102900;;;3.0;46.0
47710;BME280;33473;51.640;5.892;2023-03-01T02:01:44;102900;;;2.7;46.0
47710;BME280;33473;51.640;5.892;2023-03-01T02:15:04;102900;;;2.5;47.0
47710;BME280;33473;51.640;5.892;2023-03-01T02:28:24;102900;;;2.6;47.0
47710;BME280;33473;51.640;5.892;2023-03-01T02:41:43;102900;;;2.7;47.0
47710;BME280;33473;51.640;5.892;2023-03-01T02:55:03;102900;;;2.5;48.0
47710;BME280;33473;51.640;5.892;2023-03-01T03:08:23;102900;;;2.7;47.0
47710;BME280;33473;51.640;5.892;2023-03-01T03:21:42;102900;;;2.6;48.0
47710;BME280;33473;51.640;5.892;2023-03-01T03:35:02;102900;;;2.7;47.0
47710;BME280;33473;51.640;5.892;2023-03-01T03:48:22;102900;;;2.5;46.0
47710;BME280;33473;51.640;5.892;2023-03-01T04:01:41;102900;;;2.3;48.0
47710;BME280;33473;51.640;5.892;2023-03-01T04:15:01;102900;;;2.2;48.0
47710;BME280;33473;51.640;5.892;2023-03-01T04:28:21;102800;;;2.4;48.0
47710;BME280;33473;51.640;5.892;2023-03-01T04:41:41;102800;;;2.3;48.0
47710;BME280;33473;51.640;5.892;2023-03-01T04:55:00;102800;;;2.1;50.0
47710;BME280;33473;51.640;5.892;2023-03-01T05:08:20;102800;;;2.3;48.0
47710;BME280;33473;51.640;5.892;2023-03-01T05:21:39;102800;;;2.4;47.0
47710;BME280;33473;51.640;5.892;2023-03-01T05:34:59;102800;;;2.1;47.0
47710;BME280;33473;51.640;5.892;2023-03-01T05:48:19;102800;;;1.9;48.0
47710;BME280;33473;51.640;5.892;2023-03-01T06:01:38;102800;;;1.7;48.0
47710;BME280;33473;51.640;5.892;2023-03-01T06:14:58;102800;;;1.7;48.0
47710;BME280;33473;51.640;5.892;2023-03-01T06:28:18;102800;;;1.7;48.0
47710;BME280;33473;51.640;5.892;2023-03-01T06:41:37;102800;;;1.7;49.0
47710;BME280;33473;51.640;5.892;2023-03-01T06:54:57;102800;;;1.7;49.0
47710;BME280;33473;51.640;5.892;2023-03-01T07:08:17;102800;;;1.8;50.0
47710;BME280;33473;51.640;5.892;2023-03-01T07:21:36;102800;;;2.4;50.0
47710;BME280;33473;51.640;5.892;2023-03-01T07:34:56;102800;;;2.9;50.0
47710;BME280;33473;51.640;5.892;2023-03-01T07:48:16;102800;;;3.5;49.0
47710;BME280;33473;51.640;5.892;2023-03-01T08:01:35;102800;;;4.1;48.0
47710;BME280;33473;51.640;5.892;2023-03-01T08:14:55;102800;;;5.2;47.0
47710;BME280;33473;51.640;5.892;2023-03-01T08:28:15;102800;;;5.9;46.0
47710;BME280;33473;51.640;5.892;2023-03-01T08:41:34;102800;;;6.7;44.0
47710;BME280;33473;51.640;5.892;2023-03-01T08:54:54;102800;;;8.3;38.0
47710;BME280;33473;51.640;5.892;2023-03-01T09:08:14;102800;;;10.2;34.0
47710;BME280;33473;51.640;5.892;2023-03-01T09:21:33;102700;;;11.8;32.0
47710;BME280;33473;51.640;5.892;2023-03-01T09:34:53;102700;;;12.4;30.0
47710;BME280;33473;51.640;5.892;2023-03-01T09:48:13;102700;;;13.6;27.0
47710;BME280;33473;51.640;5.892;2023-03-01T10:01:32;102700;;;14.0;27.0
47710;BME280;33473;51.640;5.892;2023-03-01T10:14:52;102700;;;13.7;28.0
47710;BME280;33473;51.640;5.892;2023-03-01T10:28:12;102700;;;14.2;27.0
47710;BME280;33473;51.640;5.892;2023-03-01T10:41:31;102600;;;14.5;26.0
47710;BME280;33473;51.640;5.892;2023-03-01T10:54:51;102600;;;14.6;26.0
47710;BME280;33473;51.640;5.892;2023-03-01T11:08:11;102700;;;13.9;27.0
47710;BME280;33473;51.640;5.892;2023-03-01T11:21:30;102600;;;13.6;26.0
47710;BME280;33473;51.640;5.892;2023-03-01T11:34:50;102600;;;14.9;25.0
47710;BME280;33473;51.640;5.892;2023-03-01T11:48:10;102600;;;15.0;25.0
47710;BME280;33473;51.640;5.892;2023-03-01T12:01:29;102600;;;14.7;25.0
47710;BME280;33473;51.640;5.892;2023-03-01T12:14:49;102600;;;14.5;25.0
47710;BME280;33473;51.640;5.892;2023-03-01T12:28:09;102600;;;14.1;25.0
47710;BME280;33473;51.640;5.892;2023-03-01T12:41:29;102600;;;13.9;26.0
47710;BME280;33473;51.640;5.892;2023-03-01T12:54:48;102500;;;13.9;27.0
47710;BME280;33473;51.640;5.892;2023-03-01T13:08:08;102500;;;12.8;27.0
47710;BME280;33473;51.640;5.892;2023-03-01T13:21:28;102500;;;12.8;28.0
47710;BME280;33473;51.640;5.892;2023-03-01T13:34:47;102500;;;13.2;27.0
47710;BME280;33473;51.640;5.892;2023-03-01T13:48:07;102500;;;12.4;28.0
47710;BME280;33473;51.640;5.892;2023-03-01T14:01:27;102400;;;12.6;29.0
47710;BME280;33473;51.640;5.892;2023-03-01T14:14:46;102400;;;12.8;28.0
47710;BME280;33473;51.640;5.892;2023-03-01T14:28:06;102400;;;12.3;27.0
47710;BME280;33473;51.640;5.892;2023-03-01T14:41:26;102400;;;12.1;30.0
47710;BME280;33473;51.640;5.892;2023-03-01T14:54:45;102400;;;11.9;30.0
47710;BME280;33473;51.640;5.892;2023-03-01T15:08:05;102400;;;11.8;29.0
47710;BME280;33473;51.640;5.892;2023-03-01T15:21:25;102400;;;11.6;29.0
47710;BME280;33473;51.640;5.892;2023-03-01T15:34:44;102400;;;11.8;29.0
47710;BME280;33473;51.640;5.892;2023-03-01T15:48:04;102400;;;12.2;28.0
47710;BME280;33473;51.640;5.892;2023-03-01T16:01:24;102300;;;12.1;28.0
47710;BME280;33473;51.640;5.892;2023-03-01T16:14:43;102300;;;12.0;27.0
47710;BME280;33473;51.640;5.892;2023-03-01T16:28:03;102300;;;11.5;28.0
47710;BME280;33473;51.640;5.892;2023-03-01T16:41:23;102300;;;11.7;29.0
47710;BME280;33473;51.640;5.892;2023-03-01T16:54:42;102300;;;11.6;29.0
47710;BME280;33473;51.640;5.892;2023-03-01T17:08:02;102300;;;10.9;30.0
47710;BME280;33473;51.640;5.892;2023-03-01T17:21:22;102300;;;9.8;31.0
47710;BME280;33473;51.640;5.892;2023-03-01T17:34:42;102300;;;9.1;33.0
47710;BME280;33473;51.640;5.892;2023-03-01T17:48:01;102400;;;8.3;33.0
47710;BME280;33473;51.640;5.892;2023-03-01T18:01:21;102400;;;8.1;34.0
47710;BME280;33473;51.640;5.892;2023-03-01T18:14:41;102400;;;7.5;35.0
47710;BME280;33473;51.640;5.892;2023-03-01T18:28:00;102400;;;7.4;36.0
47710;BME280;33473;51.640;5.892;2023-03-01T18:41:20;102400;;;7.2;37.0
47710;BME280;33473;51.640;5.892;2023-03-01T18:54:40;102400;;;7.2;37.0
47710;BME280;33473;51.640;5.892;2023-03-01T19:07:59;102300;;;6.9;38.0
47710;BME280;33473;51.640;5.892;2023-03-01T19:21:19;102300;;;6.5;39.0
47710;BME280;33473;51.640;5.892;2023-03-01T19:34:39;102400;;;6.5;39.0
47710;BME280;33473;51.640;5.892;2023-03-01T19:47:58;102400;;;6.4;40.0
47710;BME280;33473;51.640;5.892;2023-03-01T20:01:18;102400;;;6.2;40.0
47710;BME280;33473;51.640;5.892;2023-03-01T20:14:38;102300;;;6.3;40.0
47710;BME280;33473;51.640;5.892;2023-03-01T20:27:57;102400;;;6.1;41.0
47710;BME280;33473;51.640;5.892;2023-03-01T20:41:17;102300;;;6.4;41.0
47710;BME280;33473;51.640;5.892;2023-03-01T20:54:37;102400;;;6.3;40.0
47710;BME280;33473;51.640;5.892;2023-03-01T21:07:56;102300;;;6.1;41.0
47710;BME280;33473;51.640;5.892;2023-03-01T21:21:16;102300;;;6.1;40.0
47710;BME280;33473;51.640;5.892;2023-03-01T21:34:36;102300;;;6.0;41.0
47710;BME280;33473;51.640;5.892;2023-03-01T21:47:55;102300;;;5.9;41.0
47710;BME280;33473;51.640;5.892;2023-03-01T22:01:15;102300;;;5.9;41.0
47710;BME280;33473;51.640;5.892;2023-03-01T22:14:35;102300;;;5.6;41.0
47710;BME280;33473;51.640;5.892;2023-03-01T22:27:54;102300;;;5.4;41.0
47710;BME280;33473;51.640;5.892;2023-03-01T22:41:14;102300;;;5.4;42.0
47710;BME280;33473;51.640;5.892;2023-03-01T22:54:34;102300;;;5.2;42.0
47710;BME280;33473;51.640;5.892;2023-03-01T23:07:53;102300;;;5.0;42.0
47710;BME280;33473;51.640;5.892;2023-03-01T23:21:13;102300;;;4.9;43.0
47710;BME280;33473;51.640;5.892;2023-03-01T23:34:33;102300;;;4.9;43.0
47710;BME280;33473;51.640;5.892;2023-03-01T23:47:52;102300;;;5.0;43.0
